createdAt,value
2022-10-10T00:01:26.359Z,102102.03
2022-10-10T00:06:30.466Z,101970.94
2022-10-10T00:11:31.274Z,102047.63
2022-10-10T00:16:28.338Z,102086.34
2022-10-10T00:21:25.283Z,102112.94
2022-10-10T00:26:22.368Z,102115.22
2022-10-10T00:31:19.854Z,102109.16
2022-10-10T00:36:19.833Z,102104.63
2022-10-10T00:41:22.211Z,102051.91
2022-10-10T00:46:19.952Z,102064.16
2022-10-10T00:51:20.155Z,102034.84
2022-10-10T00:56:21.227Z,102034.72
2022-10-10T01:01:18.223Z,101990.28
2022-10-10T01:06:16.265Z,102046.13
2022-10-10T01:11:30.882Z,102121.34
2022-10-10T01:16:34.315Z,102058.94
2022-10-10T01:21:43.562Z,102119.09
2022-10-10T01:27:15.792Z,102090.50
2022-10-10T01:32:19.783Z,102117.38
2022-10-10T01:37:19.711Z,102090.50
2022-10-10T01:42:22.347Z,102042.88
2022-10-10T01:47:24.606Z,102098.25
2022-10-10T01:52:34.201Z,102120.06
2022-10-10T01:57:46.831Z,102068.53
2022-10-10T02:02:52.162Z,102126.91
2022-10-10T02:07:50.666Z,102137.38
2022-10-10T02:12:49.140Z,102104.63
2022-10-10T02:17:49.068Z,102150.00
2022-10-10T02:22:47.415Z,102090.00
2022-10-10T02:27:50.635Z,102041.34
2022-10-10T02:32:52.767Z,102152.94
2022-10-10T02:37:54.316Z,102129.78
2022-10-10T02:42:53.514Z,102170.34
2022-10-10T02:47:51.889Z,102112.72
2022-10-10T02:52:49.017Z,102097.03
2022-10-10T02:57:46.468Z,102125.22
2022-10-10T03:02:45.711Z,102157.72
2022-10-10T03:07:43.536Z,102074.50
2022-10-10T03:12:40.606Z,102084.94
2022-10-10T03:17:37.456Z,102170.88
2022-10-10T03:22:34.547Z,102144.94
2022-10-10T03:27:32.467Z,102185.94
2022-10-10T03:32:29.936Z,102161.19
2022-10-10T03:37:27.334Z,102093.31
2022-10-10T03:42:26.852Z,102120.75
2022-10-10T03:47:24.504Z,102114.63
2022-10-10T03:52:27.327Z,102212.69
2022-10-10T03:57:25.105Z,102217.22
2022-10-10T04:02:21.922Z,102209.19
2022-10-10T04:07:19.782Z,102156.84
2022-10-10T04:12:16.773Z,102103.69
2022-10-10T04:17:22.587Z,102177.59
2022-10-10T04:22:20.327Z,102212.53
2022-10-10T04:27:17.542Z,102244.13
2022-10-10T04:32:14.285Z,102241.56
2022-10-10T04:37:11.346Z,102206.38
2022-10-10T04:42:08.936Z,102244.25
2022-10-10T04:47:06.782Z,102247.75
2022-10-10T04:52:03.994Z,102248.78
2022-10-10T04:57:18.261Z,102223.38
2022-10-10T05:02:37.715Z,102260.75
2022-10-10T05:07:38.075Z,102119.72
2022-10-10T05:12:43.367Z,102186.44
2022-10-10T05:17:47.859Z,102206.56
2022-10-10T05:22:45.503Z,102232.13
2022-10-10T05:27:45.130Z,102286.91
2022-10-10T05:32:43.729Z,102196.69
2022-10-10T05:37:43.916Z,102185.31
2022-10-10T05:42:41.270Z,102235.25
2022-10-10T05:47:38.546Z,102205.44
2022-10-10T05:52:36.532Z,102306.50
2022-10-10T05:57:33.679Z,102292.00
2022-10-10T06:02:30.841Z,102208.09
2022-10-10T06:07:45.885Z,102298.00
2022-10-10T06:12:49.555Z,102296.88
2022-10-10T06:17:47.133Z,102240.09
2022-10-10T06:22:44.444Z,102217.28
2022-10-10T06:27:44.324Z,102305.88
2022-10-10T06:32:47.140Z,102268.78
2022-10-10T06:37:44.660Z,102332.91
2022-10-10T06:42:42.902Z,102239.00
2022-10-10T06:47:42.990Z,102306.66
2022-10-10T06:52:42.979Z,102299.16
2022-10-10T06:57:41.916Z,102344.63
2022-10-10T07:02:42.319Z,102232.75
2022-10-10T07:07:42.669Z,102213.47
2022-10-10T07:12:44.419Z,102279.44
2022-10-10T07:17:44.757Z,102273.88
2022-10-10T07:22:44.135Z,102284.75
2022-10-10T07:27:41.480Z,102303.31
2022-10-10T07:32:40.376Z,102270.28
2022-10-10T07:37:41.893Z,102327.41
2022-10-10T07:42:44.257Z,102299.41
2022-10-10T07:47:41.599Z,102325.50
2022-10-10T07:52:39.923Z,102228.50
2022-10-10T07:57:37.647Z,102316.22
2022-10-10T08:02:35.694Z,102329.22
2022-10-10T08:07:32.639Z,102269.84
2022-10-10T08:12:29.777Z,102295.47
2022-10-10T08:17:27.315Z,102284.03
2022-10-10T08:22:25.535Z,102217.41
2022-10-10T08:27:27.523Z,102211.63
2022-10-10T08:32:24.951Z,102256.25
2022-10-10T08:37:27.229Z,102283.91
2022-10-10T08:42:35.066Z,102242.22
2022-10-10T08:47:39.411Z,102306.97
2022-10-10T08:52:42.116Z,102215.53
2022-10-10T08:57:50.242Z,102299.25
2022-10-10T09:02:53.976Z,102311.00
2022-10-10T09:08:12.760Z,102289.66
2022-10-10T09:13:25.001Z,102330.94
2022-10-10T09:18:40.576Z,102286.44
2022-10-10T09:23:49.259Z,102308.44
2022-10-10T09:28:55.736Z,102241.53
2022-10-10T09:34:06.415Z,102297.34
2022-10-10T09:39:13.331Z,102284.63
2022-10-10T09:44:15.185Z,102315.69
2022-10-10T09:49:15.382Z,102236.06
2022-10-10T09:54:15.988Z,102288.84
2022-10-10T09:59:37.233Z,102299.94
2022-10-10T10:04:38.462Z,102305.25
2022-10-10T10:09:37.223Z,102199.00
2022-10-10T10:14:46.826Z,102279.91
2022-10-10T10:19:46.450Z,102151.38
2022-10-10T10:24:43.929Z,102209.31
2022-10-10T10:29:47.502Z,102184.09
2022-10-10T10:35:33.605Z,102167.44
2022-10-10T10:40:38.722Z,102151.75
2022-10-10T10:45:46.061Z,102161.41
2022-10-10T10:50:54.105Z,102205.72
2022-10-10T10:56:00.250Z,102207.25
2022-10-10T11:01:27.887Z,102143.25
2022-10-10T11:06:54.131Z,102204.00
2022-10-10T11:12:12.776Z,102151.94
2022-10-10T11:17:19.112Z,102172.44
2022-10-10T11:22:19.318Z,102165.47
2022-10-10T11:27:24.031Z,102158.28
2022-10-10T11:32:30.547Z,102085.13
2022-10-10T11:37:31.499Z,102125.78
2022-10-10T11:42:35.569Z,102111.00
2022-10-10T11:47:36.023Z,102067.88
2022-10-10T11:52:50.014Z,102165.28
2022-10-10T11:57:54.410Z,102123.69
2022-10-10T12:02:56.929Z,102126.28
2022-10-10T12:08:18.749Z,102140.81
2022-10-10T12:13:34.089Z,102035.38
2022-10-10T12:18:41.577Z,102105.28
2022-10-10T12:23:42.426Z,102138.22
2022-10-10T12:29:01.278Z,102136.53
2022-10-10T12:34:11.383Z,102118.66
2022-10-10T12:39:40.361Z,102042.69
2022-10-10T12:44:49.511Z,102089.41
2022-10-10T12:50:43.884Z,102052.47
2022-10-10T12:55:44.187Z,102105.47
2022-10-10T13:00:52.240Z,102132.50
2022-10-10T13:05:51.687Z,102065.84
2022-10-10T13:11:04.098Z,102038.84
2022-10-10T13:16:08.323Z,102074.63
2022-10-10T13:21:38.685Z,102101.22
2022-10-10T13:26:40.473Z,102079.03
2022-10-10T13:31:38.829Z,102058.53
2022-10-10T13:36:42.686Z,102021.81
2022-10-10T13:41:49.388Z,102044.56
2022-10-10T13:52:38.693Z,101997.44
2022-10-10T13:58:01.740Z,102019.94
2022-10-10T14:03:39.073Z,102094.44
2022-10-10T14:09:13.296Z,102007.06
2022-10-10T14:14:28.376Z,101975.06
2022-10-10T14:19:44.324Z,102035.69
2022-10-10T14:24:50.822Z,102049.84
2022-10-10T14:30:22.252Z,101988.69
2022-10-10T14:35:59.978Z,102090.56
2022-10-10T14:41:18.015Z,101965.97
2022-10-10T14:47:12.219Z,101949.47
2022-10-10T14:52:55.090Z,102078.53
2022-10-10T15:04:21.162Z,102080.66
2022-10-10T15:15:34.727Z,101981.44
2022-10-10T15:20:39.454Z,102077.69
2022-10-10T15:31:48.771Z,101955.19
2022-10-10T15:38:36.524Z,101951.25
2022-10-10T15:43:56.955Z,102081.09
2022-10-10T15:55:05.633Z,102016.41
2022-10-10T16:00:11.463Z,102048.59
2022-10-10T16:05:13.169Z,102057.72
2022-10-10T16:10:59.281Z,102040.50
2022-10-10T16:16:24.518Z,102027.91
2022-10-10T16:21:24.537Z,102059.63
2022-10-10T16:27:13.434Z,102072.25
2022-10-10T16:32:58.942Z,101961.94
2022-10-10T16:38:19.296Z,102109.84
2022-10-10T16:51:07.283Z,102117.75
2022-10-10T16:56:20.229Z,102063.81
2022-10-10T17:01:20.702Z,102084.91
2022-10-10T17:06:25.185Z,102099.78
2022-10-10T17:11:36.435Z,102129.44
2022-10-10T17:17:11.542Z,102130.81
2022-10-10T17:22:12.488Z,102084.75
2022-10-10T17:28:47.120Z,102129.22
2022-10-10T17:33:53.512Z,102060.38
2022-10-10T17:39:26.075Z,102135.97
2022-10-10T17:44:28.474Z,102138.00
2022-10-10T17:49:46.329Z,102119.50
2022-10-10T18:01:13.779Z,102091.81
2022-10-10T18:06:24.128Z,102123.00
2022-10-10T18:11:43.256Z,102109.63
2022-10-10T18:17:20.083Z,102012.19
2022-10-10T18:22:20.926Z,102120.19
2022-10-10T18:27:21.260Z,102101.69
2022-10-10T18:32:19.219Z,102124.69
2022-10-10T18:37:18.160Z,102088.31
2022-10-10T18:42:16.230Z,102120.00
2022-10-10T18:47:18.597Z,102086.38
2022-10-10T18:52:16.247Z,102132.91
2022-10-10T18:57:26.112Z,102054.84
2022-10-10T19:02:32.271Z,102022.09
2022-10-10T19:07:38.320Z,102102.34
2022-10-10T19:12:36.702Z,102101.38
2022-10-10T19:17:41.465Z,102039.16
2022-10-10T19:22:39.064Z,102078.06
2022-10-10T19:27:38.572Z,102067.56
2022-10-10T19:32:42.649Z,102095.44
2022-10-10T19:37:53.808Z,102106.75
2022-10-10T19:43:04.308Z,102103.34
2022-10-10T19:48:01.758Z,102026.13
2022-10-10T19:53:05.171Z,102088.13
2022-10-10T19:58:03.404Z,102081.50
2022-10-10T20:03:00.870Z,102074.66
2022-10-10T20:07:58.164Z,102030.19
2022-10-10T20:12:55.285Z,102059.66
2022-10-10T20:17:54.458Z,102005.56
2022-10-10T20:22:54.394Z,102087.13
2022-10-10T20:27:52.912Z,102082.31
2022-10-10T20:32:53.338Z,102077.09
2022-10-10T20:37:52.633Z,102074.50
2022-10-10T20:42:52.703Z,102069.50
2022-10-10T20:47:50.050Z,102076.50
2022-10-10T20:52:47.521Z,102092.81
2022-10-10T20:57:45.696Z,101980.47
2022-10-10T21:02:42.911Z,102086.75
2022-10-10T21:07:42.230Z,102059.56
2022-10-10T21:12:41.850Z,102041.41
2022-10-10T21:17:39.794Z,101955.78
2022-10-10T21:22:36.766Z,101986.84
2022-10-10T21:27:52.191Z,102046.00
2022-10-10T21:32:50.358Z,102022.22
2022-10-10T21:37:54.373Z,102014.38
2022-10-10T21:42:52.801Z,101965.03
2022-10-10T21:53:08.529Z,101997.00
2022-10-10T21:58:15.675Z,102060.38
2022-10-10T22:03:13.921Z,101981.50
2022-10-10T22:08:11.794Z,102020.22
2022-10-10T22:13:19.645Z,101980.69
2022-10-10T22:18:19.040Z,102020.59
2022-10-10T22:23:23.378Z,102050.88
2022-10-10T22:28:20.666Z,101980.09
2022-10-10T22:33:18.456Z,101932.16
2022-10-10T22:38:15.437Z,101996.72
2022-10-10T22:43:12.430Z,102002.22
2022-10-10T22:48:09.625Z,102043.50
2022-10-10T22:53:25.287Z,101875.03
2022-10-10T22:58:22.795Z,102041.38
2022-10-10T23:03:20.853Z,102007.31
2022-10-10T23:08:43.840Z,101963.84
2022-10-10T23:13:42.853Z,102039.94
2022-10-10T23:18:39.943Z,101992.94
2022-10-10T23:23:39.299Z,101987.16
2022-10-10T23:28:36.564Z,101985.66
2022-10-10T23:33:59.000Z,101934.25
2022-10-10T23:38:57.965Z,102008.31
2022-10-10T23:43:55.229Z,101883.31
2022-10-10T23:48:52.331Z,101996.59
2022-10-10T23:53:49.676Z,102009.94
2022-10-10T23:58:47.679Z,101953.50
